Time;durP1;ratioP1;P1;durP2;ratioP2;P2;SDS_P1;SDS_P2;PMS_P1;PMS_P2;Temp;Humidity;BMP_temperature;BMP_pressure;BME280_temperature;BME280_humidity;BME280_pressure;Samples;Min_cycle;Max_cycle;Signal;HPM_P1;HPM_P2
2022/07/16 00:11:09;;;;;;;3.85;1.50;;;16.30;99.90;;;;;;6659218;89;20257;-79
2022/07/16 00:21:10;;;;;;;10.10;1.70;;;16.00;99.90;;;;;;6659106;89;20222;-79
2022/07/16 00:31:11;;;;;;;3.85;1.30;;;16.00;99.90;;;;;;6659042;89;20222;-79
2022/07/16 00:41:16;;;;;;;3.50;1.50;;;16.00;99.90;;;;;;6658956;89;20222;-79
2022/07/16 00:51:16;;;;;;;6.60;1.30;;;15.90;99.90;;;;;;6668187;77;20280;-76
2022/07/16 01:01:17;;;;;;;5.55;1.20;;;15.70;99.90;;;;;;6658667;89;20184;-76
2022/07/16 01:11:20;;;;;;;3.67;1.05;;;15.50;99.90;;;;;;6664980;89;20243;-76
2022/07/16 01:21:20;;;;;;;3.53;1.17;;;15.30;99.90;;;;;;6666524;89;20326;-77
2022/07/16 01:31:21;;;;;;;3.17;0.93;;;15.20;99.90;;;;;;6662195;89;20341;-76
2022/07/16 01:41:21;;;;;;;2.70;1.20;;;15.10;99.90;;;;;;6675522;88;20241;-76
2022/07/16 01:51:22;;;;;;;3.65;1.15;;;15.00;99.90;;;;;;6669775;88;20549;-76
2022/07/16 02:01:22;;;;;;;3.60;1.00;;;14.90;99.90;;;;;;6669659;88;20786;-77
2022/07/16 02:11:23;;;;;;;3.33;1.15;;;14.70;99.90;;;;;;6665998;88;20828;-76
2022/07/16 02:21:24;;;;;;;2.00;1.00;;;14.70;99.90;;;;;;6664051;89;20217;-76
2022/07/16 02:31:24;;;;;;;3.37;1.10;;;14.70;99.90;;;;;;6659352;88;20699;-76
2022/07/16 02:41:25;;;;;;;3.22;0.90;;;14.70;99.90;;;;;;6665239;88;20174;-76
2022/07/16 02:51:25;;;;;;;2.85;1.08;;;14.70;99.90;;;;;;6666259;88;20200;-77
2022/07/16 03:01:26;;;;;;;2.55;1.10;;;14.70;99.90;;;;;;6663405;89;20231;-77
2022/07/16 03:11:26;;;;;;;4.07;1.17;;;14.30;99.90;;;;;;6674745;88;20211;-76
2022/07/16 03:21:27;;;;;;;4.75;1.20;;;14.20;99.90;;;;;;6677789;88;20179;-77
2022/07/16 03:31:27;;;;;;;2.28;1.15;;;14.10;99.90;;;;;;6669325;88;20209;-76
2022/07/16 03:41:29;;;;;;;4.97;1.15;;;14.00;99.90;;;;;;6663538;88;20237;-76
2022/07/16 03:51:29;;;;;;;3.85;1.30;;;14.10;99.90;;;;;;6665060;89;20220;-76
2022/07/16 04:01:30;;;;;;;3.12;1.20;;;13.90;99.90;;;;;;6666670;89;20212;-76
2022/07/16 04:11:31;;;;;;;4.10;1.50;;;14.00;99.90;;;;;;6676703;88;20223;-76
2022/07/16 04:21:31;;;;;;;3.33;1.27;;;14.00;99.90;;;;;;6671789;88;20203;-77
2022/07/16 04:31:32;;;;;;;4.43;1.40;;;13.90;99.90;;;;;;6670027;88;20514;-76
2022/07/16 04:41:32;;;;;;;3.08;1.62;;;14.30;99.90;;;;;;6665385;88;20305;-76
2022/07/16 04:51:33;;;;;;;5.00;1.42;;;14.40;99.90;;;;;;6671592;88;20218;-76
2022/07/16 05:01:33;;;;;;;2.20;1.10;;;14.50;99.90;;;;;;6671018;89;20191;-77
2022/07/16 05:11:34;;;;;;;2.55;1.33;;;14.60;99.90;;;;;;6666522;89;20179;-77
2022/07/16 05:21:34;;;;;;;2.92;1.35;;;14.80;99.90;;;;;;6673479;89;20207;-77
2022/07/16 05:31:35;;;;;;;4.40;1.73;;;14.90;99.90;;;;;;6670793;89;20184;-77
2022/07/16 05:41:36;;;;;;;5.43;1.48;;;15.00;99.90;;;;;;6672015;89;20612;-77
2022/07/16 05:51:36;;;;;;;2.87;1.40;;;15.40;99.90;;;;;;6670529;89;20404;-77
2022/07/16 06:01:36;;;;;;;2.37;1.30;;;15.70;99.90;;;;;;6676363;89;20209;-77
2022/07/16 06:11:37;;;;;;;3.50;1.50;;;16.00;99.90;;;;;;6673311;88;20228;-77
2022/07/16 06:21:37;;;;;;;4.40;1.65;;;16.00;99.90;;;;;;6674990;88;20280;-77
2022/07/16 06:31:38;;;;;;;4.72;1.40;;;16.10;99.90;;;;;;6667577;88;20357;-77
2022/07/16 06:41:39;;;;;;;3.30;1.40;;;16.40;99.90;;;;;;6670674;88;20658;-77
2022/07/16 06:51:40;;;;;;;6.12;1.62;;;16.60;99.90;;;;;;6670983;88;20282;-77
2022/07/16 07:01:40;;;;;;;5.62;1.67;;;17.10;99.90;;;;;;6670126;89;20198;-77
2022/07/16 07:11:42;;;;;;;5.25;1.40;;;17.50;99.90;;;;;;6664176;89;20208;-77
2022/07/16 07:21:42;;;;;;;6.10;1.30;;;17.70;99.90;;;;;;6669700;89;20280;-78
2022/07/16 07:31:43;;;;;;;3.53;1.10;;;18.30;99.90;;;;;;6676452;89;20244;-78
2022/07/16 07:41:43;;;;;;;3.95;1.50;;;18.50;99.90;;;;;;6673479;88;20235;-77
2022/07/16 07:51:44;;;;;;;5.65;1.75;;;18.70;99.90;;;;;;6669473;88;20229;-76
2022/07/16 08:01:44;;;;;;;9.77;2.50;;;18.80;99.90;;;;;;6672298;89;20180;-76
2022/07/16 08:11:45;;;;;;;9.20;3.15;;;18.80;99.90;;;;;;6675376;89;20274;-76
2022/07/16 08:21:45;;;;;;;7.18;3.22;;;18.80;99.90;;;;;;6659589;89;20179;-76
2022/07/16 08:31:46;;;;;;;6.85;2.90;;;19.50;99.90;;;;;;6665009;89;20213;-76
2022/07/16 08:41:47;;;;;;;7.15;3.00;;;20.60;99.90;;;;;;6671938;88;20260;-76
2022/07/16 08:51:48;;;;;;;7.35;3.22;;;21.90;99.90;;;;;;6660530;88;20196;-76
2022/07/16 09:01:49;;;;;;;7.22;3.67;;;22.60;99.90;;;;;;6666673;89;20983;-77
2022/07/16 09:11:50;;;;;;;7.37;2.97;;;22.40;99.90;;;;;;6671122;89;20300;-76
2022/07/16 09:21:59;;;;;;;6.18;2.60;;;22.70;99.90;;;;;;6662078;89;20191;-77
2022/07/16 09:32:00;;;;;;;10.63;2.90;;;23.10;99.90;;;;;;6668546;89;20718;-76
2022/07/16 09:42:01;;;;;;;5.65;2.97;;;21.90;99.90;;;;;;6655625;89;20209;-76
2022/07/16 09:52:02;;;;;;;6.25;3.00;;;22.90;99.90;;;;;;6668853;88;20207;-76
2022/07/16 10:02:03;;;;;;;5.60;3.40;;;24.70;97.60;;;;;;6669026;89;20196;-77
2022/07/16 10:12:08;;;;;;;6.30;3.20;;;24.60;95.10;;;;;;6661616;89;20198;-76
2022/07/16 10:22:21;;;;;;;8.13;3.20;;;23.20;98.60;;;;;;6672552;88;21012;-77
2022/07/16 10:32:29;;;;;;;4.47;2.57;;;22.50;99.90;;;;;;6669117;88;20687;-76
2022/07/16 10:42:30;;;;;;;4.07;1.62;;;23.30;99.90;;;;;;6671357;89;20205;-76
2022/07/16 10:52:42;;;;;;;3.12;1.65;;;23.80;98.00;;;;;;6657779;89;20203;-77
2022/07/16 11:02:42;;;;;;;4.35;3.10;;;24.70;96.00;;;;;;6670000;89;20213;-77
2022/07/16 11:12:43;;;;;;;3.17;2.10;;;24.50;95.90;;;;;;6667143;88;20324;-76
2022/07/16 11:22:44;;;;;;;5.45;2.70;;;24.70;95.30;;;;;;6675755;88;20199;-76
2022/07/16 11:32:48;;;;;;;4.00;1.90;;;26.30;91.20;;;;;;6688435;88;20237;-78
2022/07/16 11:42:59;;;;;;;2.37;1.35;;;25.80;87.00;;;;;;6667331;89;20355;-77
2022/07/16 11:52:59;;;;;;;2.58;1.00;;;26.50;85.60;;;;;;6675921;88;20417;-77
2022/07/16 12:03:00;;;;;;;3.03;0.80;;;27.30;79.60;;;;;;6669465;88;20182;-77
2022/07/16 12:13:06;;;;;;;1.60;0.70;;;27.30;77.50;;;;;;6663525;88;20229;-77
2022/07/16 12:23:11;;;;;;;2.20;1.05;;;28.70;75.40;;;;;;6677063;88;20582;-76
2022/07/16 12:33:23;;;;;;;2.33;0.90;;;27.40;73.20;;;;;;6653869;89;20199;-77
2022/07/16 12:43:23;;;;;;;2.17;0.90;;;26.20;74.80;;;;;;6662782;89;20213;-77
2022/07/16 12:53:24;;;;;;;1.77;1.00;;;26.70;75.30;;;;;;6668369;89;20769;-76
2022/07/16 13:03:24;;;;;;;2.60;1.00;;;28.00;73.20;;;;;;6654411;89;20210;-76
2022/07/16 13:13:25;;;;;;;2.50;1.00;;;28.50;71.30;;;;;;6677261;89;20200;-77
2022/07/16 13:23:26;;;;;;;2.05;1.00;;;28.50;67.90;;;;;;6656891;89;20192;-77
2022/07/16 13:33:26;;;;;;;3.28;1.00;;;29.10;67.80;;;;;;6651136;89;20192;-77
2022/07/16 13:43:47;;;;;;;5.53;1.00;;;28.80;67.10;;;;;;6686043;77;20221;-80
2022/07/16 13:53:49;;;;;;;3.65;1.10;;;28.90;66.50;;;;;;6674239;89;20187;-79
2022/07/16 14:03:49;;;;;;;8.32;1.00;;;27.70;67.90;;;;;;6652991;89;20580;-80
2022/07/16 14:13:50;;;;;;;5.45;1.20;;;28.70;67.30;;;;;;6655795;89;20203;-80
2022/07/16 14:23:50;;;;;;;4.62;1.00;;;27.80;67.80;;;;;;6657110;89;20232;-80
2022/07/16 14:33:51;;;;;;;2.45;1.00;;;27.40;69.40;;;;;;6657003;89;20718;-80
2022/07/16 14:43:51;;;;;;;2.95;1.30;;;28.10;66.10;;;;;;6659041;89;20681;-80
2022/07/16 14:53:52;;;;;;;2.12;0.93;;;28.20;66.50;;;;;;6657446;89;20195;-80
2022/07/16 15:03:52;;;;;;;5.82;1.02;;;27.40;67.70;;;;;;6657225;89;20203;-80
2022/07/16 15:13:53;;;;;;;5.07;0.85;;;27.70;66.70;;;;;;6673104;89;20700;-80
2022/07/16 15:23:53;;;;;;;1.70;0.90;;;28.80;65.30;;;;;;6672280;89;20699;-80
2022/07/16 15:33:54;;;;;;;3.60;0.90;;;28.70;64.80;;;;;;6672372;89;20597;-80
2022/07/16 15:43:54;;;;;;;3.03;1.00;;;28.30;63.30;;;;;;6672952;89;20263;-80
2022/07/16 15:53:55;;;;;;;3.25;0.80;;;28.40;63.40;;;;;;6672756;89;20195;-80
2022/07/16 16:03:55;;;;;;;2.60;1.00;;;27.80;62.30;;;;;;6672452;89;20225;-79
2022/07/16 16:13:56;;;;;;;4.60;1.08;;;28.00;62.00;;;;;;6672496;89;20251;-82
2022/07/16 16:23:56;;;;;;;3.85;0.95;;;28.10;62.20;;;;;;6671256;89;20324;-80
2022/07/16 16:33:57;;;;;;;1.93;0.80;;;28.00;60.90;;;;;;6668276;89;20203;-79
2022/07/16 16:43:58;;;;;;;2.80;1.15;;;27.40;61.30;;;;;;6670854;88;20229;-79
2022/07/16 16:53:58;;;;;;;5.07;0.90;;;26.40;61.00;;;;;;6670990;89;20214;-80
2022/07/16 17:03:59;;;;;;;4.18;0.98;;;26.50;62.10;;;;;;6670502;89;20373;-80
2022/07/16 17:13:59;;;;;;;2.33;1.08;;;26.50;61.60;;;;;;6671019;89;20395;-79
2022/07/16 17:24:00;;;;;;;2.20;0.85;;;26.90;61.50;;;;;;6671283;89;20192;-81
2022/07/16 17:34:00;;;;;;;3.17;1.15;;;27.10;60.70;;;;;;6671566;89;20225;-81
2022/07/16 17:44:01;;;;;;;1.98;0.70;;;27.60;61.50;;;;;;6671066;89;20231;-81
2022/07/16 17:54:02;;;;;;;4.37;1.00;;;27.40;61.30;;;;;;6671565;89;20191;-81
2022/07/16 18:04:02;;;;;;;3.78;1.10;;;26.70;63.30;;;;;;6670803;89;20307;-81
2022/07/16 18:14:03;;;;;;;4.57;1.10;;;27.50;62.20;;;;;;6671598;89;20211;-80
2022/07/16 18:24:05;;;;;;;4.53;1.10;;;26.10;63.40;;;;;;6674558;89;21019;-80
2022/07/16 18:34:06;;;;;;;3.53;1.00;;;25.50;63.60;;;;;;6673808;89;20773;-80
2022/07/16 18:44:07;;;;;;;3.55;1.02;;;26.00;63.30;;;;;;6678308;89;20606;-79
2022/07/16 18:54:08;;;;;;;5.03;1.00;;;25.10;64.20;;;;;;6674121;89;20725;-81
2022/07/16 19:04:09;;;;;;;3.60;1.17;;;24.10;66.40;;;;;;6679865;89;20966;-80
2022/07/16 19:14:09;;;;;;;4.65;1.15;;;23.40;67.20;;;;;;6669530;89;20270;-79
2022/07/16 19:24:10;;;;;;;4.47;1.17;;;23.10;68.10;;;;;;6673060;89;20233;-80
2022/07/16 19:34:11;;;;;;;6.03;1.15;;;22.70;68.50;;;;;;6673136;89;20903;-79
2022/07/16 19:44:52;;;;;;;2.92;1.08;;;22.40;69.00;;;;;;6668151;78;20290;-79
2022/07/16 19:58:00;;;;;;;7.70;1.40;;;21.90;70.20;;;;;;6663252;89;20191;-78
2022/07/16 20:05:13;;;;;;;5.22;1.08;;;21.70;70.90;;;;;;6651085;89;20168;-79
2022/07/16 20:15:14;;;;;;;7.70;1.10;;;21.40;72.40;;;;;;6650316;89;20192;-78
2022/07/16 20:25:14;;;;;;;7.68;1.70;;;21.30;75.20;;;;;;6666422;89;20255;-78
2022/07/16 20:35:16;;;;;;;5.07;1.80;;;20.90;75.90;;;;;;6672349;89;20578;-79
2022/07/16 20:45:17;;;;;;;11.10;1.50;;;20.60;77.00;;;;;;6667179;89;20703;-77
2022/07/16 20:55:17;;;;;;;3.30;1.15;;;20.50;77.50;;;;;;6669625;89;20245;-79
2022/07/16 21:05:18;;;;;;;2.92;1.27;;;20.20;79.00;;;;;;6665810;89;20418;-78
2022/07/16 21:15:21;;;;;;;3.53;1.00;;;20.30;78.60;;;;;;6665094;89;20227;-79
2022/07/16 21:25:22;;;;;;;3.35;1.30;;;20.00;79.70;;;;;;6667807;89;20257;-78
2022/07/16 21:35:23;;;;;;;6.18;1.20;;;19.60;80.90;;;;;;6665464;89;20702;-77
2022/07/16 21:45:23;;;;;;;6.32;1.42;;;19.50;81.80;;;;;;6665173;89;20825;-78
2022/07/16 21:55:24;;;;;;;6.03;1.80;;;19.10;84.10;;;;;;6666407;89;20715;-78
2022/07/16 22:05:24;;;;;;;4.05;1.90;;;18.70;84.70;;;;;;6668070;89;20601;-77
2022/07/16 22:15:25;;;;;;;6.83;2.00;;;18.50;87.20;;;;;;6672397;89;20655;-78
2022/07/16 22:25:25;;;;;;;3.85;1.80;;;18.10;90.20;;;;;;6670004;89;21053;-78
2022/07/16 22:35:26;;;;;;;6.45;2.00;;;17.90;91.80;;;;;;6668025;89;20237;-78
2022/07/16 22:45:27;;;;;;;5.47;2.00;;;17.60;93.60;;;;;;6667884;89;20191;-78
2022/07/16 22:55:27;;;;;;;6.80;1.97;;;17.50;95.20;;;;;;6673441;88;20217;-80
2022/07/16 23:05:28;;;;;;;7.75;1.80;;;17.50;97.40;;;;;;6687574;88;20315;-80
2022/07/16 23:15:29;;;;;;;3.92;1.92;;;17.40;98.90;;;;;;6675201;88;20364;-79
2022/07/16 23:25:29;;;;;;;5.55;1.80;;;17.10;99.90;;;;;;6679722;88;20179;-80
2022/07/16 23:35:30;;;;;;;4.30;1.80;;;17.30;99.90;;;;;;6675220;89;20365;-79
2022/07/16 23:45:35;;;;;;;8.77;3.58;;;17.20;99.90;;;;;;6677849;88;20270;-80
2022/07/16 23:55:36;;;;;;;;;;;16.90;99.90;;;;;;6674864;88;20724;-80
